Aeroporto :







RITROVATECI SU...

 
LOGIN :

Iscrizione | Disclaimer

   EN    FR    IT 

 









Sommario :    VFR   VFR Marginale   IFR   IFR Intensivo   IFR Molto Intensivo
Visibilità : 
Base nubi : 
>= 8 km
>= 3000ft
5 / 8 km
1000 / 3000 ft
1500m / 5 km
500 / 1000 ft
800 / 1500m
200 / 500 ft
< 800m
< 200 ft
Simboli :   Temporali  Nebbia  Neve Forte  Precipitazioni Forti  Vento > 20 kt






- Altitudine del aeroporto : 121 ft
- Codice IATA : YBX


CYBX - Lourdes De Blanc Sablon

ULTIMO METAR :
  • 100600Z 25003KT 1/8SM -DZ FG VV002 10/10 A3005 RMK FG8 SLP178

METARs OBSOLETI :
  • 100500Z 22006KT 1/8SM -DZ FG VV002 11/11 A3002 RMK FG8 SLP170
  • 100400Z 22004KT 1/8SM -DZ FG VV002 11/11 A3003 RMK FG8 SLP172

TAF TAF CYBX
Valido dal 10 a 02 ore il 10 a 14 ore UTC


100139Z 1002/1014 22008KT 1/4SM -DZ FG VV002 RMK NXT FCST BY 100800Z
FIR CZUL / America del Nord



MetMap, La meteo Aeronautica in un colpo d'occhio ! - Copyright ORBIFLY Dicembre 2007 - Disclaimer

ORBIFLY MET'MAP TEAM :

Programmazione e sviluppo : Alexandra Zaïnal
Concezione : Baudouin d'Aumeries
Aiuto per la programmazione : Marc-Olivier Méhu
Supporto tecnico e logistico : Manuel Goepfert
Aiuto per la traduzione : Arnaldo La Scala

Contatto : metmap@orbifly.com




FONTI E CREDITI :

   NOAA